Terminal Aerodrome Forecast
Issued by NWS Shreveport, LA

Home | Current Version | Previous Version | Text Only | Print | Product List | Glossary On
Versions: 1 2 3 4 5 6 7 8 9 10 11 12 13 14 15
000
FTUS44 KSHV 030500
TAFTXK
TAF
KTXK 030524Z 0306/0406 11004KT 1/2SM FG OVC002
      TEMPO 0306/0310 3SM BR OVC004
     FM031300 17005KT P6SM BKN010
     FM031700 20008KT P6SM SCT020
      TEMPO 0317/0320 BKN015
     FM032300 16006KT P6SM VCTS BKN030CB=

USA.gov is the U.S. government's official web portal to all federal, state and local government web resources and services.